This is the latest recevied weather packets stored in our database for station/object W1HS. If no packets are shown the sender has not sent any weather packets the latest 10 day(s).
| Time | Temp. | Humidity | Pressure | Rain* | Wind** | Luminosity | Snow |
|---|---|---|---|---|---|---|---|
| 1777309820 | 20° C | 34% | 1005.2 hPa | 0 mm | - | 918 W/m² | - |
| 1777309220 | 20° C | 35% | 1005.2 hPa | 0 mm | - | 946 W/m² | - |
| 1777308619 | 20° C | 32% | 1005.4 hPa | 0 mm | - | 977 W/m² | - |
| 1777308019 | 20° C | 33% | 1005.3 hPa | 0 mm | - | 981 W/m² | - |
| 1777307422 | 20° C | 33% | 1005.4 hPa | 0 mm | - | 962 W/m² | - |
| 1777306821 | 20° C | 33% | 1005.5 hPa | 0 mm | - | 960 W/m² | - |
| 1777306219 | 19.44° C | 34% | 1005.4 hPa | 0 mm | - | 941 W/m² | - |
| 1777305619 | 19.44° C | 35% | 1005.5 hPa | 0 mm | - | 926 W/m² | - |
| 1777305020 | 18.89° C | 38% | 1005.6 hPa | 0 mm | - | 904 W/m² | - |
| 1777304419 | 18.89° C | 37% | 1005.7 hPa | 0 mm | - | 905 W/m² | - |
| 1777303219 | 18.89° C | 38% | 1005.9 hPa | 0 mm | - | 888 W/m² | - |
| 1777302619 | 18.33° C | 40% | 1005.9 hPa | 0 mm | - | 835 W/m² | - |
| 1777302020 | 17.78° C | 41% | 1006 hPa | 0 mm | - | 737 W/m² | - |
| 1777301419 | 17.22° C | 44% | 1006.1 hPa | 0 mm | - | 650 W/m² | - |
| 1777300819 | 16.67° C | 45% | 1006.1 hPa | 0 mm | - | 631 W/m² | - |
| 1777300221 | 16.11° C | 46% | 1006.1 hPa | 0 mm | - | 659 W/m² | - |
| 1777299620 | 16.11° C | 46% | 1006 hPa | 0 mm | - | 698 W/m² | - |
| 1777299019 | 15.56° C | 46% | 1006.2 hPa | 0 mm | - | 726 W/m² | - |
| 1777298419 | 15° C | 50% | 1006.1 hPa | 0 mm | - | 710 W/m² | - |
| 1777297819 | 15° C | 50% | 1006.1 hPa | 0 mm | - | 659 W/m² | - |
| 1777297219 | 13.89° C | 54% | 1006 hPa | 0 mm | - | 555 W/m² | - |
| 1777296619 | 13.89° C | 54% | 1005.9 hPa | 0 mm | - | 494 W/m² | - |
| 1777296019 | 13.33° C | 56% | 1006 hPa | 0 mm | - | 505 W/m² | - |
| 1777295419 | 12.22° C | 58% | 1006 hPa | 0 mm | - | 540 W/m² | - |
| 1777294819 | 11.11° C | 61% | 1005.8 hPa | 0 mm | - | 534 W/m² | - |
* Rain latest hour (hover to see other rain measurements)
** Current wind speed in m/s (hover to see current wind gust speed)